Phillips, Texas
Current Conditions -  °F | °C
As of 2:51 AM on Saturday 22 Nov 2014 (Local Time) from KBGD Reporting Station
Clear Clear  
Wind Chill: 42°   Ceiling: Unl
Heat Index: 45°   Visibility: 10mi
Dew Point: 38°   Wind: 6mph
Humidity: 76%   Direction: 190°S
Pressure: 30.01"   Gusts: NA
Location:  35.7207°N, 101.246°W
Report Text: KBGD 220851Z AUTO 19005KT 10SM CLR 07/03 A3001 RMK AO2 SLP150 T00720033 58003
Loading
Personal Weather Stations






























Interactive Weather Map New forecast layout! Learn more

10-Day Weather Forecast

Advertisements
Track Severe Weather on mobile